Flight Track Log - Related Links

Times and Time Zones

All times are in EDT time to prevent confusion due to time zone crossing. See the VH-BGZ flight status page for this flight to view local times or setup timezone preferences in your user account.

Time Position Orientation Groundspeed Altitude Reporting Facility
EDT Latitude Longitude Course Direction KTS MPH feet Rate Location/Type
Fri 12:50:05 AM -35.7799 150.1920 17° North 7,000  Level Aus
Fri 12:51:11 AM -35.7799 150.1920 17° North 7,000 -197 Level Aus
Fri 12:53:00 AM -35.8210 150.1749 19° North  Level FlightAware
Fri 12:53:08 AM -35.7214 150.2142 19° North 127 146 6,400  Level Aus
Fri 12:54:08 AM -35.6851 150.2304 20° North 141 162 7,300 417 Climbing Aus
Fri 12:55:03 AM -35.6443 150.2446 16° North 165 190 7,200 -200 Descending Aus
Fri 12:55:38 AM -35.6158 150.2597 23° Northeast 185 213 7,000 -71 Descending Aus
Fri 12:56:28 AM -35.5751 150.2754 17° North 185 213 7,100 55 Climbing Aus
Fri 12:57:28 AM -35.5275 150.2948 18° North 182 209 7,100  Level Aus
Fri 12:58:18 AM -35.4890 150.3103 18° North 175 201 7,100 52 Level Aus
Fri 12:59:23 AM -35.4374 150.3312 18° North 180 207 7,200 60 Climbing Aus
Fri 12:59:58 AM -35.4096 150.3431 19° North 181 208 7,200  Level Aus
Fri 01:00:33 AM -35.3819 150.3545 19° North 180 207 7,200  Level Aus
Fri 01:01:28 AM -35.3381 150.3721 18° North 181 208 7,200 -109 Level Aus
Fri 01:02:23 AM -35.2938 150.3899 18° North 184 212 7,000  Descending Aus
Fri 01:03:23 AM -35.2457 150.4095 18° North 184 212 7,200 101 Climbing Aus
Fri 01:04:22 AM -35.1970 150.4293 18° North 185 213 7,200 -64 Level Aus
Fri 01:04:57 AM -35.1686 150.4411 19° North 185 213 7,100  Descending Aus
Fri 01:05:37 AM -35.1364 150.4541 18° North 183 211 7,200  Climbing Aus
Fri 01:06:27 AM -35.0959 150.4703 18° North 184 212 7,100  Descending Aus
Fri 01:07:18 AM -35.0556 150.4866 18° North 184 212 7,200  Climbing Aus
Fri 01:08:17 AM -35.0068 150.5065 19° North 185 213 7,100 -47 Descending Aus
Fri 01:09:27 AM -34.9496 150.5296 18° North 185 213 7,100  Level Aus
Fri 01:10:27 AM -34.8991 150.5381 North 181 208 7,100  Level Aus
Fri 01:11:17 AM -34.8576 150.5460 North 181 208 7,100  Level Aus
Fri 01:11:52 AM -34.8283 150.5509 North 182 209 7,100 71 Level Aus
Fri 01:12:42 AM -34.7866 150.5583 North 182 209 7,200 -57 Climbing Aus
Fri 01:13:37 AM -34.7403 150.5666 North 184 212 7,000 -60 Descending Aus
Fri 01:14:22 AM -34.7024 150.5730 North 185 213 7,100  Climbing Aus
Fri 01:14:57 AM -34.6728 150.5784 North 186 214 7,000 63 Descending Aus
Fri 01:15:57 AM -34.6214 150.5873 North 188 216 7,200 55 Climbing Aus
Fri 01:16:47 AM -34.5791 150.5948 North 185 213 7,100  Descending Aus
Fri 01:17:37 AM -34.5368 150.6018 North 184 212 7,200 -212 Climbing Aus
Fri 01:18:12 AM -34.5070 150.6071 North 187 215 6,800 -700 Descending Aus
Fri 01:19:37 AM -34.4295 150.6209 North 199 229 5,800 -777 Descending Aus
Fri 01:20:31 AM -34.3777 150.6301 North 204 235 5,000 -848 Descending Aus
Fri 01:21:16 AM -34.3360 150.6371 North 200 230 4,400 -375 Descending Aus
Fri 01:21:51 AM -34.3056 150.6426 North 187 215 4,500 -150 Climbing Aus
Fri 01:22:36 AM -34.2678 150.6495 North 182 209 4,200 -155 Descending Aus
Fri 01:23:47 AM -34.2086 150.6605 North 180 207 4,200  Level Aus
Fri 01:24:21 AM -34.1798 150.6657 North 179 206 4,200  Level Aus
Fri 01:24:56 AM -34.1512 150.6709 North 178 205 4,200  Level Aus
Fri 01:25:46 AM -34.1104 150.6784 North 178 205 4,200  Level Aus
Fri 01:26:46 AM -34.0620 150.6872 North 176 203 4,200 -327 Level Aus
Fri 01:27:36 AM -34.0301 150.7127 33° Northeast 175 201 3,600 -776 Descending Aus
Fri 01:28:11 AM -34.0075 150.7351 39° Northeast 189 217 3,100 -733 Descending Aus
Fri 01:29:06 AM -33.9645 150.7561 22° Northeast 178 205 2,500 -282 Descending Aus
Fri 01:29:36 AM -33.9461 150.7722 36° Northeast 164 189 2,700 185 Climbing Aus
Fri 01:30:11 AM -33.9255 150.7886 34° Northeast 152 175 2,700  Level Aus
Fri 01:31:01 AM -33.8980 150.8120 35° Northeast 144 166 2,700  Level Aus
Fri 01:31:41 AM -33.8763 150.8305 35° Northeast 143 165 2,700 -200 Level Aus
Fri 01:32:31 AM -33.8653 150.8615 67° East 131 151 2,400 -514 Descending Aus
Fri 01:33:26 AM -33.8797 150.8971 116° Southeast 127 146 1,800 -808 Descending Aus
Fri 01:34:15 AM -33.8936 150.9276 119° Southeast 115 132 1,000 -825 Descending Aus
Fri 01:34:46 AM -33.9004 150.9440 116° Southeast 107 123 700 -554 Descending Aus
Fri 01:35:20 AM -33.9076 150.9615 116° Southeast 99 114 400 -456 Descending Aus
Fri 01:36:05 AM -33.9184 150.9806 124° Southeast 90 104 100 -400 Descending Aus

Login

Don't have an account? Register now (free) for customized features, flight alerts, and more!